sensor_id;sensor_type;location;lat;lon;timestamp;temperature;humidity
48998;DHT22;34807;51.456;7.244;2022-12-24T00:00:17;9.30;99.90
48998;DHT22;34807;51.456;7.244;2022-12-24T00:02:43;9.20;99.90
48998;DHT22;34807;51.456;7.244;2022-12-24T00:05:08;9.20;99.90
48998;DHT22;34807;51.456;7.244;2022-12-24T00:07:35;9.20;99.90
48998;DHT22;34807;51.456;7.244;2022-12-24T00:10:00;9.20;99.90
48998;DHT22;34807;51.456;7.244;2022-12-24T00:12:26;9.20;99.90
48998;DHT22;34807;51.456;7.244;2022-12-24T00:14:51;9.20;99.90
48998;DHT22;34807;51.456;7.244;2022-12-24T00:17:17;9.20;99.90
48998;DHT22;34807;51.456;7.244;2022-12-24T00:19:42;9.20;99.90
48998;DHT22;34807;51.456;7.244;2022-12-24T00:22:08;9.20;99.90
48998;DHT22;34807;51.456;7.244;2022-12-24T00:24:33;9.20;99.90
48998;DHT22;34807;51.456;7.244;2022-12-24T00:26:59;9.20;99.90
48998;DHT22;34807;51.456;7.244;2022-12-24T00:29:24;9.20;99.90
48998;DHT22;34807;51.456;7.244;2022-12-24T00:31:50;9.20;99.90
48998;DHT22;34807;51.456;7.244;2022-12-24T00:34:15;9.20;99.90
48998;DHT22;34807;51.456;7.244;2022-12-24T00:36:41;9.20;99.90
48998;DHT22;34807;51.456;7.244;2022-12-24T00:39:06;9.20;99.90
48998;DHT22;34807;51.456;7.244;2022-12-24T00:41:32;9.20;99.90
48998;DHT22;34807;51.456;7.244;2022-12-24T00:43:58;9.20;99.90
48998;DHT22;34807;51.456;7.244;2022-12-24T00:46:24;9.20;99.90
48998;DHT22;34807;51.456;7.244;2022-12-24T00:48:50;9.20;99.90
48998;DHT22;34807;51.456;7.244;2022-12-24T00:51:16;9.20;99.90
48998;DHT22;34807;51.456;7.244;2022-12-24T00:53:41;9.20;99.90
48998;DHT22;34807;51.456;7.244;2022-12-24T00:56:07;9.20;99.90
48998;DHT22;34807;51.456;7.244;2022-12-24T00:58:33;9.10;99.90
48998;DHT22;34807;51.456;7.244;2022-12-24T01:00:58;9.10;99.90
48998;DHT22;34807;51.456;7.244;2022-12-24T01:03:24;9.10;99.90
48998;DHT22;34807;51.456;7.244;2022-12-24T01:06:00;9.10;99.90
48998;DHT22;34807;51.456;7.244;2022-12-24T01:08:26;9.10;99.90
48998;DHT22;34807;51.456;7.244;2022-12-24T01:10:51;9.10;99.90
48998;DHT22;34807;51.456;7.244;2022-12-24T01:13:17;9.10;99.90
48998;DHT22;34807;51.456;7.244;2022-12-24T01:15:42;9.10;99.90
48998;DHT22;34807;51.456;7.244;2022-12-24T01:18:07;9.10;99.90
48998;DHT22;34807;51.456;7.244;2022-12-24T01:20:33;9.10;99.90
48998;DHT22;34807;51.456;7.244;2022-12-24T01:22:58;9.10;99.90
48998;DHT22;34807;51.456;7.244;2022-12-24T01:25:24;9.10;99.90
48998;DHT22;34807;51.456;7.244;2022-12-24T01:27:50;9.10;99.90
48998;DHT22;34807;51.456;7.244;2022-12-24T01:30:15;9.10;99.90
48998;DHT22;34807;51.456;7.244;2022-12-24T01:32:41;9.10;99.90
48998;DHT22;34807;51.456;7.244;2022-12-24T01:35:06;9.10;99.90
48998;DHT22;34807;51.456;7.244;2022-12-24T01:37:32;9.00;99.90
48998;DHT22;34807;51.456;7.244;2022-12-24T01:39:57;9.00;99.90
48998;DHT22;34807;51.456;7.244;2022-12-24T01:42:43;9.00;99.90
48998;DHT22;34807;51.456;7.244;2022-12-24T01:48:17;9.00;99.90
48998;DHT22;34807;51.456;7.244;2022-12-24T01:50:44;9.00;99.90
48998;DHT22;34807;51.456;7.244;2022-12-24T01:53:09;9.00;99.90
48998;DHT22;34807;51.456;7.244;2022-12-24T01:55:35;9.00;99.90
48998;DHT22;34807;51.456;7.244;2022-12-24T01:58:01;9.00;99.90
48998;DHT22;34807;51.456;7.244;2022-12-24T02:00:27;9.00;99.90
48998;DHT22;34807;51.456;7.244;2022-12-24T02:02:52;9.00;99.90
48998;DHT22;34807;51.456;7.244;2022-12-24T02:05:23;8.90;99.90
48998;DHT22;34807;51.456;7.244;2022-12-24T02:07:51;8.90;99.90
48998;DHT22;34807;51.456;7.244;2022-12-24T02:10:16;8.90;99.90
48998;DHT22;34807;51.456;7.244;2022-12-24T02:12:42;8.90;99.90
48998;DHT22;34807;51.456;7.244;2022-12-24T02:15:08;8.90;99.90
48998;DHT22;34807;51.456;7.244;2022-12-24T02:25:30;8.90;99.90
48998;DHT22;34807;51.456;7.244;2022-12-24T02:31:12;8.90;99.90
48998;DHT22;34807;51.456;7.244;2022-12-24T02:33:13;8.80;99.90
48998;DHT22;34807;51.456;7.244;2022-12-24T02:38:59;8.80;99.90
48998;DHT22;34807;51.456;7.244;2022-12-24T02:41:22;8.80;99.90
48998;DHT22;34807;51.456;7.244;2022-12-24T02:43:49;8.80;99.90
48998;DHT22;34807;51.456;7.244;2022-12-24T02:46:17;8.80;99.90
48998;DHT22;34807;51.456;7.244;2022-12-24T02:48:44;8.80;99.90
48998;DHT22;34807;51.456;7.244;2022-12-24T02:51:11;8.80;99.90
48998;DHT22;34807;51.456;7.244;2022-12-24T02:53:37;8.80;99.90
48998;DHT22;34807;51.456;7.244;2022-12-24T02:56:25;8.80;99.90
48998;DHT22;34807;51.456;7.244;2022-12-24T03:06:34;8.80;99.90
48998;DHT22;34807;51.456;7.244;2022-12-24T03:11:28;8.70;99.90
48998;DHT22;34807;51.456;7.244;2022-12-24T03:13:54;8.70;99.90
48998;DHT22;34807;51.456;7.244;2022-12-24T03:16:22;8.70;99.90
48998;DHT22;34807;51.456;7.244;2022-12-24T03:18:48;8.70;99.90
48998;DHT22;34807;51.456;7.244;2022-12-24T03:21:17;8.70;99.90
48998;DHT22;34807;51.456;7.244;2022-12-24T03:23:45;8.70;99.90
48998;DHT22;34807;51.456;7.244;2022-12-24T03:26:11;8.70;99.90
48998;DHT22;34807;51.456;7.244;2022-12-24T03:28:38;8.70;99.90
48998;DHT22;34807;51.456;7.244;2022-12-24T03:31:04;8.70;99.90
48998;DHT22;34807;51.456;7.244;2022-12-24T03:33:30;8.70;99.90
48998;DHT22;34807;51.456;7.244;2022-12-24T03:35:55;8.70;99.90
48998;DHT22;34807;51.456;7.244;2022-12-24T03:38:21;8.70;99.90
48998;DHT22;34807;51.456;7.244;2022-12-24T03:40:46;8.70;99.90
48998;DHT22;34807;51.456;7.244;2022-12-24T03:43:12;8.70;99.90
48998;DHT22;34807;51.456;7.244;2022-12-24T03:45:37;8.70;99.90
48998;DHT22;34807;51.456;7.244;2022-12-24T03:48:03;8.70;99.90
48998;DHT22;34807;51.456;7.244;2022-12-24T03:50:29;8.70;99.90
48998;DHT22;34807;51.456;7.244;2022-12-24T03:52:54;8.70;99.90
48998;DHT22;34807;51.456;7.244;2022-12-24T03:55:20;8.70;99.90
48998;DHT22;34807;51.456;7.244;2022-12-24T03:57:46;8.70;99.90
48998;DHT22;34807;51.456;7.244;2022-12-24T04:00:11;8.70;99.90
48998;DHT22;34807;51.456;7.244;2022-12-24T04:02:37;8.70;99.90
48998;DHT22;34807;51.456;7.244;2022-12-24T04:05:02;8.70;99.90
48998;DHT22;34807;51.456;7.244;2022-12-24T04:07:28;8.70;99.90
48998;DHT22;34807;51.456;7.244;2022-12-24T04:09:53;8.70;99.90
48998;DHT22;34807;51.456;7.244;2022-12-24T04:12:19;8.70;99.90
48998;DHT22;34807;51.456;7.244;2022-12-24T04:14:44;8.70;99.90
48998;DHT22;34807;51.456;7.244;2022-12-24T04:17:10;8.70;99.90
48998;DHT22;34807;51.456;7.244;2022-12-24T04:19:35;8.70;99.90
48998;DHT22;34807;51.456;7.244;2022-12-24T04:22:01;8.70;99.90
48998;DHT22;34807;51.456;7.244;2022-12-24T04:24:26;8.60;99.90
48998;DHT22;34807;51.456;7.244;2022-12-24T04:26:52;8.60;99.90
48998;DHT22;34807;51.456;7.244;2022-12-24T04:29:17;8.70;99.90
48998;DHT22;34807;51.456;7.244;2022-12-24T04:31:43;8.60;99.90
48998;DHT22;34807;51.456;7.244;2022-12-24T04:34:08;8.60;99.90
48998;DHT22;34807;51.456;7.244;2022-12-24T04:36:34;8.60;99.90
48998;DHT22;34807;51.456;7.244;2022-12-24T04:38:59;8.60;99.90
48998;DHT22;34807;51.456;7.244;2022-12-24T04:41:25;8.60;99.90
48998;DHT22;34807;51.456;7.244;2022-12-24T04:43:51;8.60;99.90
48998;DHT22;34807;51.456;7.244;2022-12-24T04:46:18;8.60;99.90
48998;DHT22;34807;51.456;7.244;2022-12-24T04:48:44;8.60;99.90
48998;DHT22;34807;51.456;7.244;2022-12-24T04:51:10;8.60;99.90
48998;DHT22;34807;51.456;7.244;2022-12-24T04:53:36;8.60;99.90
48998;DHT22;34807;51.456;7.244;2022-12-24T04:56:02;8.60;99.90
48998;DHT22;34807;51.456;7.244;2022-12-24T04:58:28;8.60;99.90
48998;DHT22;34807;51.456;7.244;2022-12-24T05:00:54;8.60;99.90
48998;DHT22;34807;51.456;7.244;2022-12-24T05:03:19;8.60;99.90
48998;DHT22;34807;51.456;7.244;2022-12-24T05:05:45;8.60;99.90
48998;DHT22;34807;51.456;7.244;2022-12-24T05:08:11;8.60;99.90
48998;DHT22;34807;51.456;7.244;2022-12-24T05:10:37;8.60;99.90
48998;DHT22;34807;51.456;7.244;2022-12-24T05:13:02;8.60;99.90
48998;DHT22;34807;51.456;7.244;2022-12-24T05:15:28;8.60;99.90
48998;DHT22;34807;51.456;7.244;2022-12-24T05:17:54;8.60;99.90
48998;DHT22;34807;51.456;7.244;2022-12-24T05:20:19;8.60;99.90
48998;DHT22;34807;51.456;7.244;2022-12-24T05:22:46;8.60;99.90
48998;DHT22;34807;51.456;7.244;2022-12-24T05:25:31;8.60;99.90
48998;DHT22;34807;51.456;7.244;2022-12-24T05:28:16;8.70;99.90
48998;DHT22;34807;51.456;7.244;2022-12-24T05:30:42;8.70;99.90
48998;DHT22;34807;51.456;7.244;2022-12-24T05:33:07;8.60;99.90
48998;DHT22;34807;51.456;7.244;2022-12-24T05:35:32;8.70;99.90
48998;DHT22;34807;51.456;7.244;2022-12-24T05:37:58;8.70;99.90
48998;DHT22;34807;51.456;7.244;2022-12-24T05:40:23;8.70;99.90
48998;DHT22;34807;51.456;7.244;2022-12-24T05:42:49;8.70;99.90
48998;DHT22;34807;51.456;7.244;2022-12-24T05:45:15;8.70;99.90
48998;DHT22;34807;51.456;7.244;2022-12-24T05:47:40;8.70;99.90
48998;DHT22;34807;51.456;7.244;2022-12-24T05:50:06;8.70;99.90
48998;DHT22;34807;51.456;7.244;2022-12-24T05:52:31;8.70;99.90
48998;DHT22;34807;51.456;7.244;2022-12-24T05:54:57;8.70;99.90
48998;DHT22;34807;51.456;7.244;2022-12-24T05:57:22;8.70;99.90
48998;DHT22;34807;51.456;7.244;2022-12-24T05:59:48;8.70;99.90
48998;DHT22;34807;51.456;7.244;2022-12-24T06:02:13;8.70;99.90
48998;DHT22;34807;51.456;7.244;2022-12-24T06:04:39;8.70;99.90
48998;DHT22;34807;51.456;7.244;2022-12-24T06:07:04;8.70;99.90
48998;DHT22;34807;51.456;7.244;2022-12-24T06:09:30;8.70;99.90
48998;DHT22;34807;51.456;7.244;2022-12-24T06:11:55;8.70;99.90
48998;DHT22;34807;51.456;7.244;2022-12-24T06:14:21;8.70;99.90
48998;DHT22;34807;51.456;7.244;2022-12-24T06:16:46;8.70;99.90
48998;DHT22;34807;51.456;7.244;2022-12-24T06:19:12;8.70;99.90
48998;DHT22;34807;51.456;7.244;2022-12-24T06:21:37;8.70;99.90
48998;DHT22;34807;51.456;7.244;2022-12-24T06:24:03;8.70;99.90
48998;DHT22;34807;51.456;7.244;2022-12-24T06:26:28;8.70;99.90
48998;DHT22;34807;51.456;7.244;2022-12-24T06:28:54;8.70;99.90
48998;DHT22;34807;51.456;7.244;2022-12-24T06:31:20;8.70;99.90
48998;DHT22;34807;51.456;7.244;2022-12-24T06:33:46;8.70;99.90
48998;DHT22;34807;51.456;7.244;2022-12-24T06:36:15;8.70;99.90
48998;DHT22;34807;51.456;7.244;2022-12-24T06:38:41;8.70;99.90
48998;DHT22;34807;51.456;7.244;2022-12-24T06:41:07;8.70;99.90
48998;DHT22;34807;51.456;7.244;2022-12-24T06:43:32;8.70;99.90
48998;DHT22;34807;51.456;7.244;2022-12-24T06:46:01;8.70;99.90
48998;DHT22;34807;51.456;7.244;2022-12-24T06:48:27;8.70;99.90
48998;DHT22;34807;51.456;7.244;2022-12-24T06:50:53;8.70;99.90
48998;DHT22;34807;51.456;7.244;2022-12-24T06:53:18;8.70;99.90
48998;DHT22;34807;51.456;7.244;2022-12-24T06:55:44;8.70;99.90
48998;DHT22;34807;51.456;7.244;2022-12-24T06:58:09;8.70;99.90
48998;DHT22;34807;51.456;7.244;2022-12-24T07:00:35;8.70;99.90
48998;DHT22;34807;51.456;7.244;2022-12-24T07:03:00;8.70;99.90
48998;DHT22;34807;51.456;7.244;2022-12-24T07:05:26;8.70;99.90
48998;DHT22;34807;51.456;7.244;2022-12-24T07:07:51;8.70;99.90
48998;DHT22;34807;51.456;7.244;2022-12-24T07:10:17;8.70;99.90
48998;DHT22;34807;51.456;7.244;2022-12-24T07:12:43;8.70;99.90
48998;DHT22;34807;51.456;7.244;2022-12-24T07:15:09;8.70;99.90
48998;DHT22;34807;51.456;7.244;2022-12-24T07:17:35;8.70;99.90
48998;DHT22;34807;51.456;7.244;2022-12-24T07:20:00;8.70;99.90
48998;DHT22;34807;51.456;7.244;2022-12-24T07:22:26;8.70;99.90
48998;DHT22;34807;51.456;7.244;2022-12-24T07:24:51;8.70;99.90
48998;DHT22;34807;51.456;7.244;2022-12-24T07:27:17;8.70;99.90
48998;DHT22;34807;51.456;7.244;2022-12-24T07:29:42;8.70;99.90
48998;DHT22;34807;51.456;7.244;2022-12-24T07:32:08;8.70;99.90
48998;DHT22;34807;51.456;7.244;2022-12-24T07:34:33;8.70;99.90
48998;DHT22;34807;51.456;7.244;2022-12-24T07:36:59;8.70;99.90
48998;DHT22;34807;51.456;7.244;2022-12-24T07:39:24;8.70;99.90
48998;DHT22;34807;51.456;7.244;2022-12-24T07:41:50;8.70;99.90
48998;DHT22;34807;51.456;7.244;2022-12-24T07:44:15;8.70;99.90
48998;DHT22;34807;51.456;7.244;2022-12-24T07:46:41;8.60;99.90
48998;DHT22;34807;51.456;7.244;2022-12-24T07:49:07;8.70;99.90
48998;DHT22;34807;51.456;7.244;2022-12-24T07:51:32;8.70;99.90
48998;DHT22;34807;51.456;7.244;2022-12-24T07:53:58;8.70;99.90
48998;DHT22;34807;51.456;7.244;2022-12-24T07:56:23;8.70;99.90
48998;DHT22;34807;51.456;7.244;2022-12-24T07:58:49;8.70;99.90
48998;DHT22;34807;51.456;7.244;2022-12-24T08:01:15;8.70;99.90
48998;DHT22;34807;51.456;7.244;2022-12-24T08:03:41;8.60;99.90
48998;DHT22;34807;51.456;7.244;2022-12-24T08:06:07;8.70;99.90
48998;DHT22;34807;51.456;7.244;2022-12-24T08:08:32;8.70;99.90
48998;DHT22;34807;51.456;7.244;2022-12-24T08:11:02;8.70;99.90
48998;DHT22;34807;51.456;7.244;2022-12-24T08:13:27;8.70;99.90
48998;DHT22;34807;51.456;7.244;2022-12-24T08:15:53;8.70;99.90
48998;DHT22;34807;51.456;7.244;2022-12-24T08:18:18;8.70;99.90
48998;DHT22;34807;51.456;7.244;2022-12-24T08:20:44;8.70;99.90
48998;DHT22;34807;51.456;7.244;2022-12-24T08:23:09;8.70;99.90
48998;DHT22;34807;51.456;7.244;2022-12-24T08:25:35;8.70;99.90
48998;DHT22;34807;51.456;7.244;2022-12-24T08:28:00;8.70;99.90
48998;DHT22;34807;51.456;7.244;2022-12-24T08:30:26;8.70;99.90
48998;DHT22;34807;51.456;7.244;2022-12-24T08:32:51;8.70;99.90
48998;DHT22;34807;51.456;7.244;2022-12-24T08:35:19;8.70;99.90
48998;DHT22;34807;51.456;7.244;2022-12-24T08:37:44;8.60;99.90
48998;DHT22;34807;51.456;7.244;2022-12-24T08:40:10;8.70;99.90
48998;DHT22;34807;51.456;7.244;2022-12-24T08:42:35;8.70;99.90
48998;DHT22;34807;51.456;7.244;2022-12-24T08:45:01;8.70;99.90
48998;DHT22;34807;51.456;7.244;2022-12-24T08:47:26;8.70;99.90
48998;DHT22;34807;51.456;7.244;2022-12-24T08:49:52;8.70;99.90
48998;DHT22;34807;51.456;7.244;2022-12-24T08:52:17;8.70;99.90
48998;DHT22;34807;51.456;7.244;2022-12-24T08:54:43;8.70;99.90
48998;DHT22;34807;51.456;7.244;2022-12-24T08:57:08;8.70;99.90
48998;DHT22;34807;51.456;7.244;2022-12-24T08:59:34;8.70;99.90
48998;DHT22;34807;51.456;7.244;2022-12-24T09:01:59;8.70;99.90
48998;DHT22;34807;51.456;7.244;2022-12-24T09:04:25;8.70;99.90
48998;DHT22;34807;51.456;7.244;2022-12-24T09:06:51;8.70;99.90
48998;DHT22;34807;51.456;7.244;2022-12-24T09:09:16;8.70;99.90
48998;DHT22;34807;51.456;7.244;2022-12-24T09:11:42;8.70;99.90
48998;DHT22;34807;51.456;7.244;2022-12-24T09:14:07;8.70;99.90
48998;DHT22;34807;51.456;7.244;2022-12-24T09:16:33;8.80;99.90
48998;DHT22;34807;51.456;7.244;2022-12-24T09:18:58;8.80;99.90
48998;DHT22;34807;51.456;7.244;2022-12-24T09:21:24;8.80;99.90
48998;DHT22;34807;51.456;7.244;2022-12-24T09:23:49;8.80;99.90
48998;DHT22;34807;51.456;7.244;2022-12-24T09:26:25;8.80;99.90
48998;DHT22;34807;51.456;7.244;2022-12-24T09:28:51;8.80;99.90
48998;DHT22;34807;51.456;7.244;2022-12-24T09:31:17;8.80;99.90
48998;DHT22;34807;51.456;7.244;2022-12-24T09:33:43;8.90;99.90
48998;DHT22;34807;51.456;7.244;2022-12-24T09:36:09;8.90;99.90
48998;DHT22;34807;51.456;7.244;2022-12-24T09:38:35;8.90;99.90
48998;DHT22;34807;51.456;7.244;2022-12-24T09:41:00;8.90;99.90
48998;DHT22;34807;51.456;7.244;2022-12-24T09:43:28;8.90;99.90
48998;DHT22;34807;51.456;7.244;2022-12-24T09:48:22;9.00;99.90
48998;DHT22;34807;51.456;7.244;2022-12-24T09:56:01;9.00;99.90
48998;DHT22;34807;51.456;7.244;2022-12-24T09:58:29;9.10;99.90
48998;DHT22;34807;51.456;7.244;2022-12-24T10:00:56;9.10;99.90
48998;DHT22;34807;51.456;7.244;2022-12-24T10:03:21;9.10;99.90
48998;DHT22;34807;51.456;7.244;2022-12-24T10:05:51;9.10;99.90
48998;DHT22;34807;51.456;7.244;2022-12-24T10:10:52;9.10;99.90
48998;DHT22;34807;51.456;7.244;2022-12-24T10:15:59;9.20;99.90
48998;DHT22;34807;51.456;7.244;2022-12-24T10:19:10;9.20;99.90
48998;DHT22;34807;51.456;7.244;2022-12-24T10:24:05;9.20;99.90
48998;DHT22;34807;51.456;7.244;2022-12-24T10:26:45;9.20;99.90
48998;DHT22;34807;51.456;7.244;2022-12-24T10:29:19;9.20;99.90
48998;DHT22;34807;51.456;7.244;2022-12-24T10:32:33;9.20;99.90
48998;DHT22;34807;51.456;7.244;2022-12-24T10:34:40;9.20;99.90
48998;DHT22;34807;51.456;7.244;2022-12-24T10:37:10;9.20;99.90
48998;DHT22;34807;51.456;7.244;2022-12-24T10:39:39;9.30;99.90
48998;DHT22;34807;51.456;7.244;2022-12-24T10:42:04;9.30;99.90
48998;DHT22;34807;51.456;7.244;2022-12-24T10:44:30;9.30;99.90
48998;DHT22;34807;51.456;7.244;2022-12-24T10:46:56;9.40;99.90
48998;DHT22;34807;51.456;7.244;2022-12-24T10:49:28;9.40;99.90
48998;DHT22;34807;51.456;7.244;2022-12-24T10:52:09;9.40;99.90
48998;DHT22;34807;51.456;7.244;2022-12-24T10:54:36;9.40;99.90
48998;DHT22;34807;51.456;7.244;2022-12-24T10:57:05;9.40;99.90
48998;DHT22;34807;51.456;7.244;2022-12-24T10:59:51;9.40;99.90
48998;DHT22;34807;51.456;7.244;2022-12-24T11:02:24;9.40;99.90
48998;DHT22;34807;51.456;7.244;2022-12-24T11:04:50;9.40;99.90
48998;DHT22;34807;51.456;7.244;2022-12-24T11:07:19;9.40;99.90
48998;DHT22;34807;51.456;7.244;2022-12-24T11:09:55;9.50;99.90
48998;DHT22;34807;51.456;7.244;2022-12-24T11:12:22;9.50;99.90
48998;DHT22;34807;51.456;7.244;2022-12-24T11:14:57;9.50;99.90
48998;DHT22;34807;51.456;7.244;2022-12-24T11:17:23;9.50;99.90
48998;DHT22;34807;51.456;7.244;2022-12-24T11:19:49;9.60;99.90
48998;DHT22;34807;51.456;7.244;2022-12-24T11:22:19;9.60;99.90
48998;DHT22;34807;51.456;7.244;2022-12-24T11:24:45;9.60;99.90
48998;DHT22;34807;51.456;7.244;2022-12-24T11:27:29;9.60;99.90
48998;DHT22;34807;51.456;7.244;2022-12-24T11:30:12;9.60;99.90
48998;DHT22;34807;51.456;7.244;2022-12-24T11:32:41;9.60;99.90
48998;DHT22;34807;51.456;7.244;2022-12-24T11:35:08;9.60;99.90
48998;DHT22;34807;51.456;7.244;2022-12-24T11:37:39;9.70;99.90
48998;DHT22;34807;51.456;7.244;2022-12-24T11:40:05;9.70;99.90
48998;DHT22;34807;51.456;7.244;2022-12-24T11:42:42;9.60;99.90
48998;DHT22;34807;51.456;7.244;2022-12-24T11:45:21;9.70;99.90
48998;DHT22;34807;51.456;7.244;2022-12-24T11:47:47;9.70;99.90
48998;DHT22;34807;51.456;7.244;2022-12-24T11:52:49;9.70;99.90
48998;DHT22;34807;51.456;7.244;2022-12-24T11:55:21;9.70;99.90
48998;DHT22;34807;51.456;7.244;2022-12-24T12:00:12;9.70;99.90
48998;DHT22;34807;51.456;7.244;2022-12-24T12:02:38;9.70;99.90
48998;DHT22;34807;51.456;7.244;2022-12-24T12:07:35;9.70;99.90
48998;DHT22;34807;51.456;7.244;2022-12-24T12:10:06;9.70;99.90
48998;DHT22;34807;51.456;7.244;2022-12-24T12:12:37;9.70;99.90
48998;DHT22;34807;51.456;7.244;2022-12-24T12:15:10;9.70;99.90
48998;DHT22;34807;51.456;7.244;2022-12-24T12:17:47;9.70;99.90
48998;DHT22;34807;51.456;7.244;2022-12-24T12:25:37;9.70;99.90
48998;DHT22;34807;51.456;7.244;2022-12-24T12:28:25;9.70;99.90
48998;DHT22;34807;51.456;7.244;2022-12-24T12:30:59;9.70;99.90
48998;DHT22;34807;51.456;7.244;2022-12-24T12:33:30;9.70;99.90
48998;DHT22;34807;51.456;7.244;2022-12-24T12:35:57;9.70;99.90
48998;DHT22;34807;51.456;7.244;2022-12-24T12:38:25;9.70;99.90
48998;DHT22;34807;51.456;7.244;2022-12-24T12:46:28;9.70;99.90
48998;DHT22;34807;51.456;7.244;2022-12-24T12:59:08;9.70;99.90
48998;DHT22;34807;51.456;7.244;2022-12-24T13:01:43;9.80;99.90
48998;DHT22;34807;51.456;7.244;2022-12-24T13:12:24;9.80;99.90
48998;DHT22;34807;51.456;7.244;2022-12-24T13:20:02;9.80;99.90
48998;DHT22;34807;51.456;7.244;2022-12-24T13:22:33;9.80;99.90
48998;DHT22;34807;51.456;7.244;2022-12-24T13:24:58;9.80;99.90
48998;DHT22;34807;51.456;7.244;2022-12-24T13:29:56;9.80;99.90
48998;DHT22;34807;51.456;7.244;2022-12-24T13:50:50;9.80;99.90
48998;DHT22;34807;51.456;7.244;2022-12-24T13:53:27;9.80;99.90
48998;DHT22;34807;51.456;7.244;2022-12-24T13:55:55;9.80;99.90
48998;DHT22;34807;51.456;7.244;2022-12-24T13:58:21;9.90;99.90
48998;DHT22;34807;51.456;7.244;2022-12-24T14:00:58;9.90;99.90
48998;DHT22;34807;51.456;7.244;2022-12-24T14:05:54;9.90;99.90
48998;DHT22;34807;51.456;7.244;2022-12-24T14:08:25;9.90;99.90
48998;DHT22;34807;51.456;7.244;2022-12-24T14:18:30;9.90;99.90
48998;DHT22;34807;51.456;7.244;2022-12-24T14:20:58;9.90;99.90
48998;DHT22;34807;51.456;7.244;2022-12-24T14:23:30;9.90;99.90
48998;DHT22;34807;51.456;7.244;2022-12-24T14:25:57;9.90;99.90
48998;DHT22;34807;51.456;7.244;2022-12-24T14:28:27;9.90;99.90
48998;DHT22;34807;51.456;7.244;2022-12-24T14:31:04;9.90;99.90
48998;DHT22;34807;51.456;7.244;2022-12-24T14:33:30;9.80;99.90
48998;DHT22;34807;51.456;7.244;2022-12-24T14:35:56;9.80;99.90
48998;DHT22;34807;51.456;7.244;2022-12-24T14:38:22;9.80;99.90
48998;DHT22;34807;51.456;7.244;2022-12-24T14:44:13;9.80;99.90
48998;DHT22;34807;51.456;7.244;2022-12-24T14:56:14;9.60;99.90
48998;DHT22;34807;51.456;7.244;2022-12-24T14:58:40;9.60;99.90
48998;DHT22;34807;51.456;7.244;2022-12-24T15:04:35;9.60;99.90
48998;DHT22;34807;51.456;7.244;2022-12-24T15:06:46;9.60;99.90
48998;DHT22;34807;51.456;7.244;2022-12-24T15:09:23;9.50;99.90
48998;DHT22;34807;51.456;7.244;2022-12-24T15:11:50;9.50;99.90
48998;DHT22;34807;51.456;7.244;2022-12-24T15:14:16;9.50;99.90
48998;DHT22;34807;51.456;7.244;2022-12-24T15:16:42;9.40;99.90
48998;DHT22;34807;51.456;7.244;2022-12-24T15:19:17;9.40;99.90
48998;DHT22;34807;51.456;7.244;2022-12-24T15:21:44;9.40;99.90
48998;DHT22;34807;51.456;7.244;2022-12-24T15:24:26;9.40;99.90
48998;DHT22;34807;51.456;7.244;2022-12-24T15:26:52;9.30;99.90
48998;DHT22;34807;51.456;7.244;2022-12-24T15:29:22;9.30;99.90
48998;DHT22;34807;51.456;7.244;2022-12-24T15:31:52;9.30;99.90
48998;DHT22;34807;51.456;7.244;2022-12-24T15:34:25;9.20;99.90
48998;DHT22;34807;51.456;7.244;2022-12-24T15:36:51;9.20;99.90
48998;DHT22;34807;51.456;7.244;2022-12-24T15:39:17;9.20;99.90
48998;DHT22;34807;51.456;7.244;2022-12-24T15:41:43;9.20;99.90
48998;DHT22;34807;51.456;7.244;2022-12-24T15:44:28;9.10;99.90
48998;DHT22;34807;51.456;7.244;2022-12-24T15:47:00;9.10;99.90
48998;DHT22;34807;51.456;7.244;2022-12-24T15:49:27;9.10;99.90
48998;DHT22;34807;51.456;7.244;2022-12-24T15:52:00;9.10;99.90
48998;DHT22;34807;51.456;7.244;2022-12-24T15:54:26;9.00;99.90
48998;DHT22;34807;51.456;7.244;2022-12-24T15:56:51;9.00;99.90
48998;DHT22;34807;51.456;7.244;2022-12-24T15:59:22;9.00;99.90
48998;DHT22;34807;51.456;7.244;2022-12-24T16:01:50;8.90;99.90
48998;DHT22;34807;51.456;7.244;2022-12-24T16:04:25;8.90;99.90
48998;DHT22;34807;51.456;7.244;2022-12-24T16:09:59;8.90;99.90
48998;DHT22;34807;51.456;7.244;2022-12-24T16:12:11;8.90;99.90
48998;DHT22;34807;51.456;7.244;2022-12-24T16:14:36;8.80;99.90
48998;DHT22;34807;51.456;7.244;2022-12-24T16:17:09;8.80;99.90
48998;DHT22;34807;51.456;7.244;2022-12-24T16:19:40;8.80;99.90
48998;DHT22;34807;51.456;7.244;2022-12-24T16:22:05;8.70;99.90
48998;DHT22;34807;51.456;7.244;2022-12-24T16:24:50;8.70;99.90
48998;DHT22;34807;51.456;7.244;2022-12-24T16:27:19;8.70;99.90
48998;DHT22;34807;51.456;7.244;2022-12-24T16:29:45;8.60;99.90
48998;DHT22;34807;51.456;7.244;2022-12-24T16:32:30;8.60;99.90
48998;DHT22;34807;51.456;7.244;2022-12-24T16:34:56;8.60;99.90
48998;DHT22;34807;51.456;7.244;2022-12-24T16:37:22;8.60;99.90
48998;DHT22;34807;51.456;7.244;2022-12-24T16:39:48;8.60;99.90
48998;DHT22;34807;51.456;7.244;2022-12-24T16:42:13;8.60;99.90
48998;DHT22;34807;51.456;7.244;2022-12-24T16:44:57;8.50;99.90
48998;DHT22;34807;51.456;7.244;2022-12-24T16:47:27;8.50;99.90
48998;DHT22;34807;51.456;7.244;2022-12-24T16:49:55;8.40;99.90
48998;DHT22;34807;51.456;7.244;2022-12-24T16:52:22;8.40;99.90
48998;DHT22;34807;51.456;7.244;2022-12-24T16:54:49;8.40;99.90
48998;DHT22;34807;51.456;7.244;2022-12-24T16:57:15;8.40;99.90
48998;DHT22;34807;51.456;7.244;2022-12-24T16:59:41;8.30;99.90
48998;DHT22;34807;51.456;7.244;2022-12-24T17:02:08;8.30;99.90
48998;DHT22;34807;51.456;7.244;2022-12-24T17:04:34;8.30;99.90
48998;DHT22;34807;51.456;7.244;2022-12-24T17:07:00;8.30;99.90
48998;DHT22;34807;51.456;7.244;2022-12-24T17:09:25;8.20;99.90
48998;DHT22;34807;51.456;7.244;2022-12-24T17:11:51;8.20;99.90
48998;DHT22;34807;51.456;7.244;2022-12-24T17:14:16;8.20;99.90
48998;DHT22;34807;51.456;7.244;2022-12-24T17:16:42;8.20;99.90
48998;DHT22;34807;51.456;7.244;2022-12-24T17:19:08;8.10;99.90
48998;DHT22;34807;51.456;7.244;2022-12-24T17:21:33;8.10;99.90
48998;DHT22;34807;51.456;7.244;2022-12-24T17:23:59;8.10;99.90
48998;DHT22;34807;51.456;7.244;2022-12-24T17:26:24;8.10;99.90
48998;DHT22;34807;51.456;7.244;2022-12-24T17:28:53;8.00;99.90
48998;DHT22;34807;51.456;7.244;2022-12-24T17:31:22;8.00;99.90
48998;DHT22;34807;51.456;7.244;2022-12-24T17:33:51;8.00;99.90
48998;DHT22;34807;51.456;7.244;2022-12-24T17:36:16;7.90;99.90
48998;DHT22;34807;51.456;7.244;2022-12-24T17:38:42;8.00;99.90
48998;DHT22;34807;51.456;7.244;2022-12-24T17:41:12;7.90;99.90
48998;DHT22;34807;51.456;7.244;2022-12-24T17:43:37;7.90;99.90
48998;DHT22;34807;51.456;7.244;2022-12-24T17:46:03;7.90;99.90
48998;DHT22;34807;51.456;7.244;2022-12-24T17:48:30;7.90;99.90
48998;DHT22;34807;51.456;7.244;2022-12-24T17:50:55;7.90;99.90
48998;DHT22;34807;51.456;7.244;2022-12-24T17:53:20;7.90;99.90
48998;DHT22;34807;51.456;7.244;2022-12-24T17:55:46;7.80;99.90
48998;DHT22;34807;51.456;7.244;2022-12-24T17:58:11;7.80;99.90
48998;DHT22;34807;51.456;7.244;2022-12-24T18:00:39;7.80;99.90